-1 Query Result

LUMCON's Bayouside Classroom: Query Results


Try Another Query    Instructions for saving Query Results    View Delimited Text File for this Query   
UserNameUserIDGroupNumberLocationLocationIDSampleDateSampleTimeBottomTempTopTempBottomSalinityTopSalinityBottomDOTopDOBottompHToppHBottomTurbidityTopTurbidityDepth
gtheriot 96 HoumaNavigationCanal1 47 1/24/2009 09:51 NA 15.0 NA 17 NA 8.2 NA 8.5 NA 17.0 NA 
acapello 105 NA HoumaNavigationCanal1 47 1/24/2009 09:10 NA 14.0 NA NA 8.0 NA 8.0 NA 12.2 NA 
mbaustian 103 HoumaNavigationCanal1 47 1/24/2009 9:15 NA 15 NA NA 6.8 NA 8.9 NA 16.7 518.16 
jrexford 116 NA HoumaNavigationCanal1 47 1/24/2009 0912 NA 14.5 NA NA 8.6 NA 9.0 NA 10.9 NA 
knichols 104 NA HoumaNavigationCanal1 47 1/24/2009 09:13 NA 13.8 NA 5.0 NA 7.8 NA 8.5 NA 16.0 NA 
Murt HoumaNavigationCanal1 47 1/24/2009 0915  14.0 NA NA 8.2 NA 8.5 NA 15.5 NA 
llebouef 129 HoumaNavigationCanal1 47 10/24/2009 09:36 NA 22 NA 12 NA NA 8.5  37 NA 
acapello 105 NA HoumaNavigationCanal1 47 10/24/2009 09:35 NA 23 NA 15 NA 6.2 NA 8.2  31.6 NA 
Lumcon NA HoumaNavigationCanal1 47 10/24/2009 09:05 NA 24 NA 15 NA 5.2 NA 7.3  28.2 NA 
Lumcon NA HoumaNavigationCanal1 47 10/24/2009 09:05 NA 24 NA 15 NA 5.2 NA 7.3  28.2 NA 
paml 122 NA HoumaNavigationCanal1 47 10/24/2009 09:05 NA 20.5 NA 15 NA 5.9 NA 8.4  33.6 NA 
snichol 127 HoumaNavigationCanal1 47 10/24/2009 09:05 NA 25 NA 14.5 NA 4.2 NA 7.3  31.8 NA 
Lumcon NA HoumaNavigationCanal1 47 10/24/2009 09:00 NA 22.5 NA 14 NA 6.2 NA 8.5  35.0 NA 
rbabin 126 NA HoumaNavigationCanal1 47 10/24/2009 09:00 NA 23 NA 17 NA 5.0 NA 7.3  28.6 N/A 
Lumcon 10 HoumaNavigationCanal1 47 7/22/2010 09:22 NA 31 NA 11 NA 4.2 NA 7.8  14.2 20 
Lumcon NA HoumaNavigationCanal1 47 7/22/2010 09:42 NA 32 NA 15 NA 3.4 NA 8.3  15.0 609.6 
Lumcon NA HoumaNavigationCanal1 47 7/22/2010 09:25 NA 31 NA 13 NA 2.8 NA 6.6  18.7 609.6 
Lumcon NA HoumaNavigationCanal1 47 7/22/2010 9:22 NA 32 NA 10 NA 4.8 NA 8.1  17.4 20 
Lumcon HoumaNavigationCanal1 47 7/22/2010 09:22 NA 32.8 NA 30 NA 5.1 NA 8.2  17.2 600 
Lumcon HoumaNavigationCanal1 47 10/7/2011 9:25 NA 25 NA 15 NA NA 8.3  73 NA 
Lumcon HoumaNavigationCanal1 47 10/8/2011 09:10 NA 26 NA 10 NA 5.4 NA 8.1  18.4 542.544 
Lumcon HoumaNavigationCanal1 47 10/8/2011 9:25 NA 25 NA 15 NA NA 8.3  73 NA 
Lumcon NA HoumaNavigationCanal1 47 10/8/2011 09:25 NA 26.0 NA 14 NA 4.8 NA 8.2  20.7 543  
Lumcon NA HoumaNavigationCanal1 47 10/8/2011 9:20 NA 25,5 NA 10 NA NA  19.6 542.54 
Lumcon HoumaNavigationCanal1 47 5/31/2013 09:44 NA 29 NA 11.5 NA NA 7.9  31.4 13.5 
Lumcon NA HoumaNavigationCanal1 47 5/31/2013 945 29C NA 10ppt NA 5.2 NA 8.0 NA  30.2 cm NA